Richland, Illinois
Current Conditions -  °F | °C
As of 9:52 PM on Saturday 20 Dec 2014 (Local Time) from KSPI Reporting Station
Overcast Overcast  
Wind Chill: 30°   Ceiling: 3400
Heat Index: 38°   Visibility: 10mi
Dew Point: 31°   Wind: 12mph
Humidity: 76%   Direction: 150°SSE
Pressure: 30.24"   Gusts: NA
Location:  39.8458°N, 89.8743°W
Report Text: KSPI 210352Z 15010KT 10SM OVC034 03/M01 A3024 RMK AO2 SLP246 T00331006
Loading
Personal Weather Stations






























Interactive Weather Map New forecast layout! Learn more

10-Day Weather Forecast

Advertisements
Track Severe Weather on mobile